createdAt,value
2022-09-04T06:37:38.971Z,50.8
2022-09-04T06:43:16.674Z,50.8
2022-09-04T06:49:01.033Z,50.8
2022-09-04T06:54:48.447Z,50.8
2022-09-04T07:00:27.160Z,50.8
2022-09-04T07:06:04.848Z,50.7
2022-09-04T07:11:41.398Z,50.6
2022-09-04T07:17:03.274Z,50.6
2022-09-04T07:22:41.669Z,50.6
2022-09-04T07:28:20.112Z,50.6
2022-09-04T07:33:58.024Z,50.5
2022-09-04T07:39:40.815Z,50.5
2022-09-04T07:45:21.628Z,50.4
2022-09-04T07:50:59.908Z,50.5
2022-09-04T07:56:52.741Z,50.6
2022-09-04T08:02:30.046Z,50.8
2022-09-04T08:08:16.525Z,51.1
2022-09-04T08:13:53.297Z,51.3
2022-09-04T08:19:33.399Z,51.6
2022-09-04T08:30:36.470Z,52.3
2022-09-04T08:36:18.438Z,52.7
2022-09-04T08:41:58.852Z,53
2022-09-04T08:47:22.649Z,53.4
2022-09-04T08:53:03.964Z,53.8
2022-09-04T08:58:11.121Z,54.1
2022-09-04T09:03:37.374Z,54.6
2022-09-04T09:09:04.389Z,54.9
2022-09-04T09:14:27.709Z,55.4
2022-09-04T09:20:09.572Z,55.8
2022-09-04T09:25:35.375Z,56.2
2022-09-04T09:31:14.936Z,56.4
2022-09-04T09:36:52.435Z,56.8
2022-09-04T09:42:22.085Z,57.1
2022-09-04T09:47:59.907Z,57.6
2022-09-04T09:53:47.621Z,58
2022-09-04T09:59:34.817Z,58.4
2022-09-04T10:05:13.057Z,58.9
2022-09-04T10:10:55.524Z,59.4
2022-09-04T10:16:31.612Z,59.8
2022-09-04T10:22:12.941Z,60.1
2022-09-04T10:28:00.170Z,60.6
2022-09-04T10:33:45.023Z,60.9
2022-09-04T10:39:22.355Z,61.4
2022-09-04T11:08:13.140Z,63.2
2022-09-04T11:13:51.580Z,63.6
2022-09-04T11:19:32.700Z,63.9
2022-09-04T11:24:57.065Z,64.3
2022-09-04T11:30:35.187Z,64.6
2022-09-04T11:36:13.274Z,64.9
2022-09-04T11:41:55.048Z,65.1
2022-09-04T11:47:33.663Z,65.4
2022-09-04T11:53:11.041Z,65.7
2022-09-04T11:58:48.507Z,66
2022-09-04T12:04:26.568Z,66.4
2022-09-04T12:10:18.034Z,66.5
2022-09-04T12:16:14.088Z,66.8
2022-09-04T12:21:53.220Z,67.1
2022-09-04T12:27:41.719Z,67.3
2022-09-04T12:33:24.503Z,67.3
2022-09-04T12:39:02.627Z,67.3
2022-09-04T12:44:44.964Z,67.2
2022-09-04T12:50:24.805Z,67.2
2022-09-04T12:56:08.691Z,67.2
2022-09-04T13:01:39.924Z,67.1
2022-09-04T13:07:32.507Z,67.1
2022-09-04T13:13:18.971Z,67
2022-09-04T13:18:57.692Z,67
2022-09-04T13:24:24.779Z,66.9
2022-09-04T13:30:08.219Z,67
2022-09-04T13:35:53.020Z,66.9
2022-09-04T13:41:30.627Z,66.9
2022-09-04T13:47:07.627Z,66.8
2022-09-04T13:52:59.171Z,66.7
2022-09-04T13:58:44.353Z,66.7
2022-09-04T14:04:26.879Z,66.6
2022-09-04T14:10:11.125Z,66.6
2022-09-04T14:15:53.929Z,66.5
2022-09-04T14:21:50.819Z,66.4
2022-09-04T14:27:33.049Z,66.4
2022-09-04T14:33:34.767Z,66.4
2022-09-04T14:39:13.147Z,66.3
2022-09-04T14:44:50.319Z,66.3
2022-09-04T14:50:36.669Z,66.2
2022-09-04T14:56:18.418Z,66.1
2022-09-04T15:01:58.589Z,66.1
2022-09-04T15:08:06.983Z,66.1
2022-09-04T15:14:03.680Z,66
2022-09-04T18:52:46.843Z,64.1
2022-09-04T18:58:39.075Z,64
2022-09-04T19:04:35.675Z,63.9
2022-09-04T19:10:28.550Z,63.9
2022-09-04T19:16:42.174Z,63.8
2022-09-04T19:22:31.252Z,63.8
2022-09-04T19:28:52.791Z,63.7
2022-09-04T19:34:38.235Z,63.6
2022-09-04T19:53:42.599Z,63.5
2022-09-04T20:01:15.513Z,63.3
2022-09-04T20:07:27.521Z,63.1
2022-09-04T20:13:15.047Z,63.1
2022-09-04T20:19:12.446Z,62.9
2022-09-04T20:25:34.217Z,62.9
2022-09-04T20:31:28.317Z,62.8
2022-09-04T20:37:21.832Z,62.8
2022-09-04T20:42:44.913Z,62.7
2022-09-04T20:56:36.128Z,62.6
2022-09-04T21:08:26.002Z,62.2
2022-09-04T21:14:03.990Z,62.1
2022-09-04T21:20:33.288Z,62.1
2022-09-04T21:26:26.379Z,62
2022-09-04T21:32:19.503Z,61.9
2022-09-04T21:38:45.830Z,61.8
2022-09-04T21:45:15.800Z,61.8
2022-09-04T21:51:44.882Z,61.7
2022-09-04T22:05:52.746Z,61.6
2022-09-04T22:18:36.698Z,61.4
2022-09-04T22:24:28.329Z,61.3
2022-09-04T22:31:05.403Z,61.3
2022-09-04T22:37:34.125Z,61.2
2022-09-04T22:43:15.929Z,61.1
2022-09-04T22:49:29.245Z,61.1
2022-09-04T22:55:29.541Z,61
2022-09-04T23:02:09.947Z,60.9
2022-09-04T23:16:14.312Z,60.8
2022-09-04T23:31:46.334Z,60.6
2022-09-04T23:38:00.359Z,60.6
2022-09-04T23:43:57.081Z,60.4
2022-09-04T23:50:29.428Z,60.4
2022-09-04T23:56:22.131Z,60.4
